Time;durP1;ratioP1;P1;durP2;ratioP2;P2;SDS_P1;SDS_P2;PMS_P1;PMS_P2;Temp;Humidity;BMP_temperature;BMP_pressure;BME280_temperature;BME280_humidity;BME280_pressure;Samples;Min_cycle;Max_cycle;Signal;HPM_P1;HPM_P2
2022/04/14 00:00:23;;;;;;;15.40;13.00;;;;;;;15.04;75.30;101527.72;5037941;28;20178;-73
2022/04/14 00:02:49;;;;;;;15.17;13.07;;;;;;;15.11;75.16;101519.88;5038615;28;20249;-71
2022/04/14 00:05:15;;;;;;;16.17;12.67;;;;;;;14.86;75.95;101521.50;5038673;28;20396;-72
2022/04/14 00:07:40;;;;;;;16.10;12.90;;;;;;;14.84;75.83;101517.13;5038875;28;20391;-73
2022/04/14 00:10:06;;;;;;;16.90;12.20;;;;;;;14.54;75.93;101516.94;5038720;28;20528;-72
2022/04/14 00:12:32;;;;;;;16.40;12.10;;;;;;;14.95;75.28;101507.53;5038453;28;20177;-73
2022/04/14 00:14:57;;;;;;;14.90;12.60;;;;;;;15.07;74.90;101511.94;5038872;28;20384;-73
2022/04/14 00:17:23;;;;;;;17.10;12.83;;;;;;;15.25;74.37;101506.75;5037759;28;20544;-72
2022/04/14 00:19:48;;;;;;;16.77;11.87;;;;;;;14.86;75.11;101518.88;5039041;28;20257;-72
2022/04/14 00:22:13;;;;;;;19.87;12.70;;;;;;;15.22;74.30;101504.13;5039537;28;20638;-73
2022/04/14 00:24:39;;;;;;;15.47;13.50;;;;;;;15.01;74.77;101504.94;5038504;28;20174;-73
2022/04/14 00:27:04;;;;;;;16.00;13.20;;;;;;;15.06;74.89;101508.47;5038468;28;20206;-73
2022/04/14 00:29:30;;;;;;;18.80;15.97;;;;;;;15.14;74.54;101516.34;5038992;28;20220;-72
2022/04/14 00:31:55;;;;;;;18.10;14.87;;;;;;;14.96;75.10;101519.78;5038356;28;20174;-73
2022/04/14 00:34:20;;;;;;;20.90;14.07;;;;;;;15.21;76.00;101536.53;5038298;28;20174;-72
2022/04/14 00:36:46;;;;;;;19.57;13.40;;;;;;;15.02;75.59;101538.22;5039014;28;20170;-72
2022/04/14 00:39:11;;;;;;;19.70;15.50;;;;;;;15.19;75.24;101534.75;5038133;28;20205;-73
2022/04/14 00:41:37;;;;;;;18.13;14.60;;;;;;;15.03;75.68;101532.06;5038139;28;20289;-73
2022/04/14 00:44:03;;;;;;;23.73;15.50;;;;;;;14.84;76.43;101533.72;5038714;28;20167;-72
2022/04/14 00:46:28;;;;;;;22.50;15.10;;;;;;;14.99;76.70;101515.44;5038301;28;20171;-72
2022/04/14 00:48:54;;;;;;;22.03;15.77;;;;;;;14.19;78.92;101520.19;5038405;28;20193;-71
2022/04/14 00:51:19;;;;;;;23.83;16.47;;;;;;;14.80;78.09;101511.88;5037787;28;20231;-72
2022/04/14 00:53:44;;;;;;;21.47;16.70;;;;;;;15.03;77.29;101520.69;5038057;28;20178;-72
2022/04/14 00:56:10;;;;;;;22.80;16.57;;;;;;;14.90;76.82;101535.53;5038206;28;20272;-72
2022/04/14 00:58:35;;;;;;;19.63;15.43;;;;;;;15.00;76.67;101521.56;5038613;28;20175;-71
2022/04/14 01:01:02;;;;;;;27.27;17.87;;;;;;;14.97;77.14;101525.03;5037842;28;20240;-72
2022/04/14 01:03:28;;;;;;;26.07;17.13;;;;;;;14.92;76.82;101529.38;5037931;28;20236;-71
2022/04/14 01:05:53;;;;;;;27.07;18.23;;;;;;;14.98;78.02;101524.19;5038564;28;20387;-71
2022/04/14 01:08:19;;;;;;;25.10;16.93;;;;;;;14.97;77.06;101513.69;5038325;28;20173;-71
2022/04/14 01:10:48;;;;;;;22.63;14.50;;;;;;;15.09;76.50;101508.47;5037817;28;20197;-70
2022/04/14 01:13:18;;;;;;;24.00;15.33;;;;;;;14.81;76.39;101512.72;5038514;28;20166;-71
2022/04/14 01:15:47;;;;;;;17.73;12.80;;;;;;;14.95;76.36;101518.94;5038019;28;20438;-71
2022/04/14 01:18:12;;;;;;;17.03;13.37;;;;;;;15.07;75.72;101517.19;5038095;28;20421;-71
2022/04/14 01:20:39;;;;;;;18.60;12.90;;;;;;;14.91;75.90;101511.91;5038520;28;20462;-70
2022/04/14 01:23:05;;;;;;;15.80;10.80;;;;;;;14.96;74.86;101520.69;5037473;28;20216;-72
2022/04/14 01:25:32;;;;;;;14.90;11.57;;;;;;;14.80;75.86;101517.13;5037792;28;20391;-72
2022/04/14 01:27:57;;;;;;;17.53;12.13;;;;;;;14.53;76.28;101514.28;5038575;28;20170;-71
2022/04/14 01:30:23;;;;;;;16.27;10.57;;;;;;;14.84;76.54;101514.50;5037794;28;20420;-72
2022/04/14 01:32:48;;;;;;;11.30;9.93;;;;;;;14.70;75.76;101523.19;5036986;28;20476;-72
2022/04/14 01:35:13;;;;;;;14.93;11.70;;;;;;;14.74;75.71;101513.59;5038157;28;20175;-73
2022/04/14 01:37:39;;;;;;;19.53;12.07;;;;;;;14.74;76.07;101501.31;5037844;28;20268;-72
2022/04/14 01:40:05;;;;;;;17.23;12.70;;;;;;;14.62;76.51;101509.09;5037751;28;20293;-73
2022/04/14 01:42:30;;;;;;;15.13;12.93;;;;;;;14.85;75.24;101506.63;5037775;28;20216;-71
2022/04/14 01:44:56;;;;;;;18.53;12.83;;;;;;;14.69;75.99;101510.91;5037713;28;20420;-71
2022/04/14 01:47:21;;;;;;;16.37;12.97;;;;;;;14.44;76.83;101523.88;5037633;28;20181;-72
2022/04/14 01:49:46;;;;;;;19.27;13.40;;;;;;;14.66;76.44;101518.78;5038016;28;20181;-73
2022/04/14 01:52:12;;;;;;;18.37;14.17;;;;;;;14.92;75.60;101518.03;5040656;28;20170;-71
2022/04/14 01:54:37;;;;;;;22.37;14.10;;;;;;;14.47;77.24;101516.00;5041178;28;20170;-73
2022/04/14 01:57:03;;;;;;;19.30;14.30;;;;;;;14.17;77.63;101521.06;5041908;28;20508;-71
2022/04/14 01:59:29;;;;;;;17.93;14.40;;;;;;;14.57;77.03;101510.81;5041281;28;20213;-73
2022/04/14 02:01:54;;;;;;;20.27;14.53;;;;;;;14.55;77.46;101513.44;5041112;28;20800;-71
2022/04/14 02:04:19;;;;;;;18.40;14.53;;;;;;;14.37;78.13;101513.31;5041069;28;20568;-72
2022/04/14 02:06:45;;;;;;;20.87;15.70;;;;;;;14.55;77.48;101507.34;5040319;28;20417;-72
2022/04/14 02:09:10;;;;;;;19.80;15.87;;;;;;;14.47;78.21;101508.13;5041482;28;20268;-71
2022/04/14 02:11:35;;;;;;;26.10;16.63;;;;;;;14.72;77.03;101499.56;5040947;28;20317;-72
2022/04/14 02:14:01;;;;;;;19.67;15.80;;;;;;;14.72;76.58;101500.44;5041051;28;20589;-71
2022/04/14 02:16:26;;;;;;;24.00;16.30;;;;;;;14.77;76.17;101503.94;5041205;28;20174;-72
2022/04/14 02:18:51;;;;;;;26.40;18.00;;;;;;;14.53;77.57;101493.31;5041044;28;20440;-72
2022/04/14 02:21:16;;;;;;;25.67;16.97;;;;;;;14.69;76.89;101510.06;5040736;28;20178;-72
2022/04/14 02:23:42;;;;;;;28.17;18.10;;;;;;;14.73;76.49;101499.56;5041121;28;20193;-72
2022/04/14 02:26:07;;;;;;;27.30;18.23;;;;;;;14.81;76.44;101495.22;5040091;28;20216;-71
2022/04/14 02:28:33;;;;;;;23.90;17.00;;;;;;;14.91;76.00;101492.63;5040907;28;20174;-70
2022/04/14 02:30:58;;;;;;;29.27;19.80;;;;;;;14.72;76.56;101492.59;5041068;28;20201;-72
2022/04/14 02:33:23;;;;;;;26.37;17.17;;;;;;;14.67;76.91;101494.31;5040547;28;20182;-71
2022/04/14 02:35:49;;;;;;;25.37;18.30;;;;;;;14.51;77.15;101490.69;5040856;28;20208;-71
2022/04/14 02:38:14;;;;;;;26.57;18.37;;;;;;;14.66;77.09;101492.53;5041322;28;20174;-71
2022/04/14 02:40:39;;;;;;;27.80;19.50;;;;;;;14.56;76.61;101501.19;5040443;28;20178;-72
2022/04/14 02:43:04;;;;;;;32.53;19.40;;;;;;;14.71;76.85;101492.53;5040216;28;20607;-71
2022/04/14 02:45:30;;;;;;;25.70;18.50;;;;;;;14.52;77.09;101496.78;5040808;28;20180;-71
2022/04/14 02:47:55;;;;;;;21.90;18.50;;;;;;;14.71;76.80;101480.31;5040328;28;20257;-71
2022/04/14 02:50:21;;;;;;;25.83;20.60;;;;;;;14.40;77.61;101490.63;5040401;28;20182;-71
2022/04/14 02:52:47;;;;;;;28.70;19.63;;;;;;;14.73;76.74;101485.56;5040406;28;20270;-70
2022/04/14 02:55:13;;;;;;;24.20;19.60;;;;;;;14.53;77.09;101486.34;5040214;28;20678;-72
2022/04/14 02:57:38;;;;;;;28.80;21.43;;;;;;;14.43;78.16;101482.75;5039722;28;20384;-71
2022/04/14 03:00:06;;;;;;;25.17;18.63;;;;;;;14.07;78.81;101486.03;5040854;28;20178;-72
2022/04/14 03:02:31;;;;;;;30.13;20.43;;;;;;;14.66;78.19;101471.53;5039581;28;20252;-71
2022/04/14 03:04:58;;;;;;;26.60;20.97;;;;;;;14.53;78.57;101485.44;5040152;28;20790;-71
2022/04/14 03:07:24;;;;;;;30.43;20.90;;;;;;;14.62;77.44;101477.63;5040316;28;20181;-71
2022/04/14 03:09:49;;;;;;;33.63;21.20;;;;;;;14.62;76.87;101485.50;5040012;28;20731;-72
2022/04/14 03:12:14;;;;;;;29.77;21.37;;;;;;;14.63;76.88;101489.91;5039735;28;20195;-72
2022/04/14 03:14:40;;;;;;;28.00;21.13;;;;;;;14.47;77.82;101495.03;5040261;28;20177;-72
2022/04/14 03:17:05;;;;;;;29.50;22.40;;;;;;;14.62;77.36;101491.59;5039706;28;20170;-72
2022/04/14 03:19:30;;;;;;;31.30;22.10;;;;;;;14.58;77.42;101481.97;5039921;28;20230;-73
2022/04/14 03:21:58;;;;;;;28.00;22.17;;;;;;;14.54;77.55;101482.81;5039823;28;20198;-72
2022/04/14 03:24:23;;;;;;;32.80;22.97;;;;;;;14.38;78.05;101488.84;5039635;28;20162;-72
2022/04/14 03:26:48;;;;;;;27.63;22.80;;;;;;;14.29;79.37;101487.94;5039668;28;20424;-73
2022/04/14 03:29:13;;;;;;;28.10;20.30;;;;;;;14.41;78.62;101484.50;5040043;28;20431;-72
2022/04/14 03:31:39;;;;;;;28.60;21.47;;;;;;;13.91;78.98;101485.03;5039594;28;20166;-73
2022/04/14 03:34:04;;;;;;;25.87;20.93;;;;;;;14.28;79.19;101486.16;5039621;28;20220;-72
2022/04/14 03:36:30;;;;;;;28.93;20.70;;;;;;;14.54;78.20;101485.44;5040153;28;20176;-73
2022/04/14 03:38:55;;;;;;;34.33;22.03;;;;;;;14.30;78.75;101486.19;5039697;28;20257;-73
2022/04/14 03:41:20;;;;;;;28.37;20.70;;;;;;;14.15;78.75;101485.22;5039143;28;20487;-74
2022/04/14 03:43:46;;;;;;;29.87;19.47;;;;;;;14.14;79.26;101485.22;5039783;28;20167;-71
2022/04/14 03:46:14;;;;;;;28.90;20.70;;;;;;;14.20;79.37;101481.75;5039381;28;20174;-72
2022/04/14 03:48:39;;;;;;;32.50;23.43;;;;;;;14.31;78.42;101477.44;5039343;28;20174;-71
2022/04/14 03:51:05;;;;;;;30.43;23.87;;;;;;;14.61;77.55;101486.34;5039577;28;20441;-73
2022/04/14 03:53:30;;;;;;;28.57;23.10;;;;;;;14.56;77.93;101480.19;5039077;28;20270;-72
2022/04/14 03:55:55;;;;;;;33.13;24.30;;;;;;;14.46;77.94;101474.94;5039159;28;20209;-72
2022/04/14 03:58:21;;;;;;;38.37;23.77;;;;;;;14.55;77.60;101479.34;5039681;28;20417;-72
2022/04/14 04:00:46;;;;;;;31.30;22.63;;;;;;;14.29;78.73;101479.19;5039071;28;20408;-71
2022/04/14 04:03:12;;;;;;;29.33;21.40;;;;;;;14.27;78.81;101475.69;5038937;28;20541;-71
2022/04/14 04:05:38;;;;;;;29.40;22.00;;;;;;;14.19;79.65;101482.63;5039371;28;20173;-72
2022/04/14 04:08:04;;;;;;;28.43;19.50;;;;;;;13.80;80.74;101487.56;5038965;28;20409;-71
2022/04/14 04:10:30;;;;;;;32.90;21.20;;;;;;;14.05;80.29;101480.78;5038890;28;20183;-72
2022/04/14 04:12:55;;;;;;;34.47;21.90;;;;;;;13.85;80.65;101477.13;5038924;28;20384;-71
2022/04/14 04:15:20;;;;;;;31.90;21.93;;;;;;;13.79;81.16;101488.44;5038413;28;20200;-71
2022/04/14 04:17:46;;;;;;;32.53;21.83;;;;;;;13.74;81.39;101482.28;5038797;28;20174;-71
2022/04/14 04:20:12;;;;;;;32.73;23.53;;;;;;;13.81;81.00;101476.22;5039163;28;20158;-72
2022/04/14 04:22:37;;;;;;;31.10;22.87;;;;;;;13.97;80.29;101480.72;5038490;28;20202;-71
2022/04/14 04:25:03;;;;;;;35.20;22.53;;;;;;;14.16;80.11;101483.47;5038628;28;20355;-71
2022/04/14 04:27:29;;;;;;;35.20;23.57;;;;;;;13.89;81.04;101486.78;5038970;28;20197;-71
2022/04/14 04:29:55;;;;;;;38.50;23.77;;;;;;;13.86;80.49;101487.63;5037912;28;20637;-70
2022/04/14 04:32:20;;;;;;;37.90;26.87;;;;;;;13.80;81.22;101477.06;5038405;28;20179;-71
2022/04/14 04:34:45;;;;;;;40.33;29.20;;;;;;;13.89;80.69;101473.66;5038977;28;20174;-72
2022/04/14 04:37:11;;;;;;;37.07;26.90;;;;;;;14.18;80.08;101481.75;5038533;28;20197;-72
2022/04/14 04:39:36;;;;;;;36.40;25.60;;;;;;;14.18;79.97;101483.47;5038494;28;20610;-72
2022/04/14 04:42:01;;;;;;;39.10;25.50;;;;;;;14.18;79.65;101481.75;5038886;28;20580;-72
2022/04/14 04:44:27;;;;;;;40.07;27.30;;;;;;;14.00;79.79;101479.84;5038380;28;20181;-71
2022/04/14 04:46:53;;;;;;;32.73;24.37;;;;;;;13.75;81.28;101486.66;5038573;28;20170;-71
2022/04/14 04:49:18;;;;;;;38.90;25.80;;;;;;;13.75;81.49;101497.16;5038648;28;20174;-71
2022/04/14 04:51:43;;;;;;;37.83;25.57;;;;;;;13.67;82.29;101494.47;5038098;28;20185;-72
2022/04/14 04:54:08;;;;;;;37.87;25.20;;;;;;;13.44;82.63;101494.25;5038170;28;20166;-72
2022/04/14 04:56:34;;;;;;;35.13;24.23;;;;;;;13.88;82.12;101492.88;5038516;28;20220;-70
2022/04/14 04:58:59;;;;;;;34.20;24.63;;;;;;;14.18;80.68;101492.25;5027540;28;20202;-70
2022/04/14 05:01:24;;;;;;;35.07;24.00;;;;;;;13.68;81.89;101498.84;5018024;28;20198;-72
2022/04/14 05:03:50;;;;;;;37.70;23.90;;;;;;;13.70;82.18;101497.09;5018173;28;20234;-72
2022/04/14 05:06:15;;;;;;;38.40;24.07;;;;;;;13.97;81.74;101504.31;5018321;28;20175;-72
2022/04/14 05:08:40;;;;;;;39.73;25.37;;;;;;;13.49;82.68;101500.41;5018522;28;20189;-72
2022/04/14 05:11:06;;;;;;;39.20;25.80;;;;;;;13.76;81.73;101497.16;5017472;28;20177;-73
2022/04/14 05:13:31;;;;;;;37.20;26.67;;;;;;;13.77;82.14;101503.28;5018471;28;20413;-73
2022/04/14 05:15:56;;;;;;;38.20;25.60;;;;;;;13.72;81.71;101505.88;5018574;28;20163;-73
2022/04/14 05:18:21;;;;;;;38.80;27.20;;;;;;;13.62;82.01;101504.88;5018303;28;20225;-74
2022/04/14 05:20:47;;;;;;;38.60;24.47;;;;;;;13.88;81.67;101499.00;5018073;28;20544;-73
2022/04/14 05:23:12;;;;;;;35.53;24.67;;;;;;;13.80;81.73;101501.56;5018023;28;20290;-73
2022/04/14 05:25:41;;;;;;;34.30;24.70;;;;;;;13.74;81.98;101496.25;5018860;28;20186;-73
2022/04/14 05:28:06;;;;;;;39.90;26.13;;;;;;;14.10;81.01;101494.81;5022153;28;20253;-73
2022/04/14 05:30:32;;;;;;;40.40;27.40;;;;;;;14.01;81.13;101499.97;5025094;28;20482;-73
2022/04/14 05:32:57;;;;;;;38.50;26.63;;;;;;;14.03;81.43;101508.75;5032247;28;20186;-74
2022/04/14 05:35:22;;;;;;;35.70;25.10;;;;;;;14.00;81.38;101502.59;5021032;28;20186;-73
2022/04/14 05:37:48;;;;;;;38.57;26.40;;;;;;;13.71;82.02;101501.47;5010582;28;20179;-70
2022/04/14 05:40:13;;;;;;;36.43;26.87;;;;;;;13.78;81.76;101505.91;5002364;28;20179;-73
2022/04/14 05:42:39;;;;;;;33.83;24.00;;;;;;;13.85;81.88;101512.06;5019624;28;20242;-69
2022/04/14 05:45:05;;;;;;;36.93;26.63;;;;;;;13.77;82.29;101517.28;5021434;28;20171;-72
2022/04/14 05:47:30;;;;;;;37.37;27.97;;;;;;;13.99;81.15;101512.22;5021535;28;20447;-72
2022/04/14 05:49:56;;;;;;;33.07;23.47;;;;;;;13.89;81.35;101510.38;5021566;28;20413;-73
2022/04/14 05:52:22;;;;;;;37.93;25.53;;;;;;;13.71;81.78;101516.34;5021803;28;20177;-72
2022/04/14 05:54:48;;;;;;;35.13;24.43;;;;;;;14.42;80.33;101499.41;5003953;28;20175;-72
2022/04/14 05:57:13;;;;;;;33.13;25.17;;;;;;;14.51;79.37;101510.81;5001871;28;20474;-72
2022/04/14 05:59:39;;;;;;;34.80;24.87;;;;;;;14.43;78.15;101514.25;5002375;28;20407;-72
2022/04/14 06:02:05;;;;;;;36.40;25.40;;;;;;;14.16;79.81;101514.94;5016381;28;20499;-72
2022/04/14 06:04:30;;;;;;;30.03;23.17;;;;;;;13.71;81.44;101519.81;5021794;28;20846;-72
2022/04/14 06:06:59;;;;;;;32.70;24.47;;;;;;;14.00;81.18;101519.19;5021569;28;20282;-71
2022/04/14 06:09:24;;;;;;;34.17;24.53;;;;;;;14.32;80.41;101508.94;5021307;28;20167;-72
2022/04/14 06:11:49;;;;;;;44.03;25.80;;;;;;;13.79;81.62;101514.66;5020213;28;20740;-73
2022/04/14 06:14:14;;;;;;;35.10;24.70;;;;;;;13.93;81.23;101525.25;5021749;28;20208;-75
2022/04/14 06:16:40;;;;;;;42.13;25.37;;;;;;;14.51;79.96;101518.69;5020331;28;20183;-73
2022/04/14 06:19:05;;;;;;;38.70;25.20;;;;;;;14.66;79.62;101521.41;5008827;28;20203;-70
2022/04/14 06:21:30;;;;;;;31.00;23.77;;;;;;;14.44;78.64;101526.50;5001586;28;20195;-70
2022/04/14 06:23:56;;;;;;;33.10;24.13;;;;;;;14.56;79.11;101515.22;5019940;28;20203;-70
2022/04/14 06:26:22;;;;;;;27.70;21.60;;;;;;;14.33;79.51;101517.69;5020485;28;20187;-70
2022/04/14 06:28:48;;;;;;;30.13;24.17;;;;;;;14.29;80.12;101526.41;5021300;28;20632;-70
2022/04/14 06:31:14;;;;;;;31.37;24.33;;;;;;;14.07;80.98;101525.34;5020680;28;20171;-70
2022/04/14 06:33:39;;;;;;;33.00;25.07;;;;;;;14.25;79.88;101524.63;5021118;28;20348;-71
2022/04/14 06:36:04;;;;;;;30.30;24.23;;;;;;;14.58;79.06;101523.09;5031001;28;20170;-71
2022/04/14 06:38:30;;;;;;;30.10;23.43;;;;;;;14.15;80.32;101535.06;5033152;28;20261;-72
2022/04/14 06:40:55;;;;;;;32.73;22.73;;;;;;;13.94;81.61;101535.75;5021008;28;20183;-71
2022/04/14 06:43:21;;;;;;;29.57;23.00;;;;;;;14.04;82.08;101520.97;5019804;28;20195;-70
2022/04/14 06:45:47;;;;;;;28.23;23.67;;;;;;;14.72;79.60;101516.19;5037061;28;20178;-73
2022/04/14 06:48:15;;;;;;;27.03;22.60;;;;;;;14.46;78.94;101524.78;5034355;28;20167;-72
2022/04/14 06:50:41;;;;;;;29.03;24.13;;;;;;;14.71;77.99;101527.56;5019422;28;20404;-71
2022/04/14 06:53:06;;;;;;;27.23;22.40;;;;;;;14.44;79.14;101530.88;5025893;28;20817;-71
2022/04/14 06:55:32;;;;;;;28.43;21.57;;;;;;;14.33;79.74;101538.69;5021915;28;20179;-71
2022/04/14 06:57:58;;;;;;;24.43;21.67;;;;;;;14.28;79.34;101529.88;5021863;28;20178;-72
2022/04/14 07:00:24;;;;;;;24.97;21.87;;;;;;;14.12;80.43;101535.00;5028343;28;20447;-71
2022/04/14 07:02:51;;;;;;;26.70;22.23;;;;;;;14.70;79.09;101532.81;5019582;28;20235;-71
2022/04/14 07:05:17;;;;;;;23.60;19.93;;;;;;;14.87;78.09;101530.25;5028960;28;20457;-72
2022/04/14 07:07:43;;;;;;;25.47;21.63;;;;;;;14.77;78.18;101524.09;5018996;28;20420;-70
2022/04/14 07:10:10;;;;;;;27.83;22.40;;;;;;;14.62;78.14;101530.97;5015348;28;20401;-71
2022/04/14 07:12:36;;;;;;;28.27;20.80;;;;;;;14.97;77.90;101529.44;5000158;28;20194;-70
2022/04/14 07:15:02;;;;;;;26.00;21.20;;;;;;;14.31;78.87;101529.91;5009707;28;20701;-72
2022/04/14 07:17:27;;;;;;;22.93;20.30;;;;;;;14.63;78.63;101534.53;5019708;28;20560;-72
2022/04/14 07:19:53;;;;;;;24.13;21.57;;;;;;;14.90;78.11;101531.16;5019994;28;20174;-71
2022/04/14 07:22:18;;;;;;;26.13;21.47;;;;;;;14.65;77.53;101538.00;5011123;28;20264;-72
2022/04/14 07:24:47;;;;;;;24.70;20.67;;;;;;;14.89;78.27;101528.53;5019325;28;20194;-71
2022/04/14 07:27:13;;;;;;;26.27;20.10;;;;;;;14.51;78.48;101532.66;5020139;28;20190;-71
2022/04/14 07:29:38;;;;;;;23.27;20.83;;;;;;;14.45;78.61;101537.84;5017997;28;20436;-72
2022/04/14 07:32:04;;;;;;;23.80;20.93;;;;;;;14.80;77.42;101537.22;5019566;28;20183;-72
2022/04/14 07:34:32;;;;;;;28.30;22.60;;;;;;;14.43;76.96;101547.47;5019987;28;20458;-72
2022/04/14 07:36:57;;;;;;;24.50;21.33;;;;;;;14.90;76.04;101533.78;5019267;28;20183;-72
2022/04/14 07:39:22;;;;;;;25.10;21.20;;;;;;;14.28;77.48;101535.13;5019200;28;20430;-71
2022/04/14 07:41:48;;;;;;;27.03;22.10;;;;;;;15.00;76.79;101537.31;5003227;28;20220;-71
2022/04/14 07:44:13;;;;;;;26.00;23.20;;;;;;;15.20;75.59;101536.53;5010855;28;20457;-71
2022/04/14 07:46:38;;;;;;;28.17;23.63;;;;;;;15.63;74.57;101532.22;5018588;28;20587;-72
2022/04/14 07:49:05;;;;;;;27.60;21.67;;;;;;;15.52;72.64;101527.81;5019544;28;20167;-72
2022/04/14 07:51:33;;;;;;;24.87;22.27;;;;;;;15.58;72.49;101528.72;5027832;28;20261;-71
2022/04/14 07:53:58;;;;;;;26.63;22.63;;;;;;;15.97;71.17;101544.56;5039060;28;20531;-70
2022/04/14 07:56:24;;;;;;;24.20;21.60;;;;;;;15.85;71.55;101545.44;5039653;28;20426;-71
2022/04/14 07:58:52;;;;;;;26.07;23.30;;;;;;;15.88;71.38;101539.31;5038718;28;20305;-71
2022/04/14 08:01:20;;;;;;;25.43;22.63;;;;;;;15.26;72.02;101549.66;5038680;28;20484;-71
2022/04/14 08:03:47;;;;;;;28.07;23.83;;;;;;;15.14;73.11;101561.00;5038511;28;20731;-71
2022/04/14 08:06:13;;;;;;;27.83;24.83;;;;;;;15.20;72.58;101557.53;5038025;28;20388;-71
2022/04/14 08:08:39;;;;;;;28.20;23.80;;;;;;;15.73;71.38;101551.50;5019468;28;20433;-70
2022/04/14 08:11:04;;;;;;;25.00;22.27;;;;;;;15.56;70.91;101547.97;5018952;28;20388;-70
2022/04/14 08:13:32;;;;;;;30.10;23.60;;;;;;;15.70;71.04;101551.53;5019029;28;20166;-70
2022/04/14 08:16:01;;;;;;;26.60;22.80;;;;;;;16.81;67.11;101545.31;5019427;28;20163;-74
2022/04/14 08:18:26;;;;;;;27.83;21.70;;;;;;;16.78;67.22;101540.94;5019103;28;20422;-73
2022/04/14 08:20:52;;;;;;;23.00;20.60;;;;;;;15.96;68.93;101548.06;5018744;28;20395;-73
2022/04/14 08:23:17;;;;;;;23.63;20.80;;;;;;;16.96;66.82;101541.78;5019168;28;20437;-73
2022/04/14 08:25:42;;;;;;;25.77;20.83;;;;;;;17.10;65.64;101542.59;5018655;28;20235;-73
2022/04/14 08:28:08;;;;;;;27.90;22.00;;;;;;;17.19;66.20;101546.06;5018607;28;20171;-73
2022/04/14 08:30:35;;;;;;;22.53;20.23;;;;;;;16.33;67.12;101556.81;5019296;28;20170;-74
2022/04/14 08:33:06;;;;;;;22.93;20.63;;;;;;;15.94;69.71;101557.69;5018551;28;20189;-74
2022/04/14 08:35:32;;;;;;;30.80;22.10;;;;;;;16.27;69.39;101554.19;5018497;28;20486;-73
2022/04/14 08:37:57;;;;;;;26.93;21.30;;;;;;;15.64;71.00;101551.50;5018862;28;20388;-74
2022/04/14 08:40:23;;;;;;;26.93;22.30;;;;;;;15.80;70.12;101557.69;5018738;28;20404;-74
2022/04/14 08:43:01;;;;;;;26.87;22.33;;;;;;;15.44;71.29;101564.63;5017756;28;20206;-73
2022/04/14 08:45:31;;;;;;;30.73;23.93;;;;;;;16.13;69.66;101556.84;5018563;28;20186;-73
2022/04/14 08:47:58;;;;;;;27.70;24.03;;;;;;;16.03;69.81;101559.47;5018532;28;20429;-72
2022/04/14 08:50:24;;;;;;;27.43;22.70;;;;;;;16.36;68.13;101553.31;5018129;28;20410;-74
2022/04/14 08:52:51;;;;;;;33.63;23.57;;;;;;;16.59;67.77;101558.53;5018218;28;20472;-74
2022/04/14 08:55:16;;;;;;;32.67;25.43;;;;;;;16.61;66.97;101555.91;5018298;28;20472;-74
2022/04/14 08:57:42;;;;;;;41.57;24.97;;;;;;;17.22;64.98;101552.19;5018680;28;20469;-74
2022/04/14 09:00:10;;;;;;;31.10;25.80;;;;;;;16.53;65.15;101558.53;5017496;28;20209;-74
2022/04/14 09:02:35;;;;;;;28.43;24.23;;;;;;;16.99;64.31;101555.81;5021031;28;20235;-74
2022/04/14 09:05:02;;;;;;;26.73;23.17;;;;;;;17.84;62.02;101559.72;5032098;28;20802;-75
2022/04/14 09:07:27;;;;;;;27.57;24.70;;;;;;;17.68;60.32;101557.22;5029293;28;20179;-75
2022/04/14 09:09:52;;;;;;;32.63;24.27;;;;;;;17.55;60.13;101552.00;5018285;28;20858;-73
2022/04/14 09:12:18;;;;;;;27.40;21.57;;;;;;;17.97;59.24;101544.72;5038434;28;20527;-73
2022/04/14 09:14:45;;;;;;;22.90;20.50;;;;;;;17.98;58.21;101549.09;5037229;28;20188;-74
2022/04/14 09:17:10;;;;;;;23.10;19.60;;;;;;;17.71;58.73;101552.78;5037939;28;20170;-74
2022/04/14 09:19:36;;;;;;;23.50;18.03;;;;;;;17.20;59.57;101553.06;5027569;28;20417;-72
2022/04/14 09:22:08;;;;;;;21.50;19.20;;;;;;;17.82;59.65;101556.25;5017774;28;20207;-72
2022/04/14 09:24:45;;;;;;;19.90;17.90;;;;;;;18.15;58.71;101549.81;5018076;28;20421;-72
2022/04/14 09:27:31;;;;;;;21.47;17.83;;;;;;;18.26;56.98;101554.13;5018072;28;20495;-74
2022/04/14 09:30:03;;;;;;;19.30;17.37;;;;;;;19.35;53.60;101546.75;5018363;28;20788;-75
2022/04/14 09:32:38;;;;;;;20.80;18.47;;;;;;;18.97;53.88;101543.72;5018279;28;20483;-75
2022/04/14 09:35:31;;;;;;;19.77;17.67;;;;;;;19.01;53.26;101540.13;5018061;28;20424;-75
2022/04/14 09:38:06;;;;;;;19.97;17.07;;;;;;;19.58;52.37;101542.88;4998437;28;20422;-73
2022/04/14 09:40:35;;;;;;;17.97;15.60;;;;;;;19.16;54.61;101540.84;4998437;28;20505;-74
2022/04/14 09:43:01;;;;;;;23.50;17.67;;;;;;;21.08;49.50;101535.81;4998011;28;20478;-71
2022/04/14 09:45:28;;;;;;;18.30;16.60;;;;;;;21.38;48.47;101538.69;4997623;28;20454;-72
2022/04/14 09:47:55;;;;;;;19.57;17.80;;;;;;;20.14;50.99;101535.81;4998654;28;20262;-71
2022/04/14 09:50:39;;;;;;;21.80;16.90;;;;;;;20.32;50.55;101533.75;4998314;28;20482;-75
2022/04/14 09:53:05;;;;;;;16.67;14.90;;;;;;;20.60;49.99;101538.53;4997578;28;20422;-73
2022/04/14 09:55:32;;;;;;;18.67;16.90;;;;;;;20.43;49.62;101526.50;4998105;28;20421;-73
2022/04/14 09:58:15;;;;;;;18.30;16.60;;;;;;;20.07;50.46;101530.69;4998379;28;20775;-73
2022/04/14 10:00:43;;;;;;;17.90;16.10;;;;;;;19.60;51.91;101528.72;4997516;28;20836;-72
2022/04/14 10:03:16;;;;;;;17.90;16.20;;;;;;;19.60;50.67;101530.50;4997136;28;20489;-73
2022/04/14 10:05:41;;;;;;;17.30;15.80;;;;;;;20.24;49.31;101530.38;4997318;28;20777;-73
2022/04/14 10:08:07;;;;;;;16.93;15.43;;;;;;;19.68;50.66;101532.13;5013583;28;20458;-73
2022/04/14 10:10:34;;;;;;;16.40;14.80;;;;;;;19.69;50.63;101533.03;5026407;28;20182;-74
2022/04/14 10:13:07;;;;;;;17.53;14.57;;;;;;;20.11;49.35;101530.59;5039461;28;20178;-74
2022/04/14 10:15:37;;;;;;;18.60;16.67;;;;;;;20.66;48.29;101522.50;5041079;28;20417;-73
2022/04/14 10:18:13;;;;;;;15.83;14.23;;;;;;;21.64;45.75;101519.53;5040895;28;20897;-73
2022/04/14 10:20:40;;;;;;;18.23;15.67;;;;;;;22.08;44.55;101519.31;5040922;28;20425;-74
2022/04/14 10:23:08;;;;;;;16.13;14.73;;;;;;;21.99;44.57;101528.41;5040630;28;20464;-75
2022/04/14 10:25:37;;;;;;;14.67;13.47;;;;;;;23.68;40.72;101512.97;5041101;28;20417;-78
2022/04/14 10:28:06;;;;;;;16.00;14.47;;;;;;;22.31;43.19;101517.84;5041740;28;20532;-77
2022/04/14 10:30:31;;;;;;;15.37;14.10;;;;;;;22.25;44.79;101521.53;5041271;28;20460;-76
2022/04/14 10:32:57;;;;;;;16.20;14.50;;;;;;;21.43;45.53;101531.47;5040903;28;20412;-77
2022/04/14 10:35:26;;;;;;;15.20;13.80;;;;;;;22.34;43.36;101521.34;5041279;28;20363;-77
2022/04/14 10:38:18;;;;;;;17.20;14.63;;;;;;;23.92;39.92;101510.41;5040032;28;20224;-76
2022/04/14 10:41:05;;;;;;;15.50;14.20;;;;;;;23.18;40.35;101519.84;5040813;28;20786;-75
2022/04/14 10:43:33;;;;;;;13.93;12.67;;;;;;;23.99;39.92;101507.50;5039323;28;20461;-74
2022/04/14 10:46:00;;;;;;;13.87;12.70;;;;;;;23.36;40.30;101517.53;5039719;28;20417;-74
2022/04/14 10:48:29;;;;;;;13.20;12.00;;;;;;;22.24;41.75;101525.09;5039972;28;20716;-75
2022/04/14 10:51:16;;;;;;;13.40;12.10;;;;;;;22.52;41.56;101527.06;5040424;28;20475;-75
2022/04/14 10:53:55;;;;;;;15.03;13.37;;;;;;;23.45;41.05;101517.22;5040494;28;20447;-75
2022/04/14 10:56:42;;;;;;;12.60;11.37;;;;;;;23.38;39.19;101519.22;5039848;28;20818;-74
2022/04/14 10:59:31;;;;;;;11.90;11.00;;;;;;;22.76;39.69;101521.94;5040253;28;20428;-75
2022/04/14 11:02:02;;;;;;;11.27;10.30;;;;;;;22.40;40.91;101530.91;5040083;28;20456;-75
2022/04/14 11:04:42;;;;;;;8.83;8.10;;;;;;;23.09;40.56;101520.06;5039864;28;20460;-65
2022/04/14 11:07:13;;;;;;;11.90;10.90;;;;;;;23.38;39.83;101521.88;5031270;28;20433;-63